Time;durP1;ratioP1;P1;durP2;ratioP2;P2;SDS_P1;SDS_P2;PMS_P1;PMS_P2;Temp;Humidity;BMP_temperature;BMP_pressure;BME280_temperature;BME280_humidity;BME280_pressure;Samples;Min_cycle;Max_cycle;Signal;HPM_P1;HPM_P2
2022/01/09 00:01:45;;;;;;;7.13;3.10;;;;;;;;;;4983971;28;20205;-81
2022/01/09 00:04:12;;;;;;;7.27;3.70;;;;;;;;;;4989465;28;20467;-82
2022/01/09 00:06:40;;;;;;;4.27;3.03;;;;;;;;;;4995269;28;20253;-83
2022/01/09 00:09:07;;;;;;;3.80;2.70;;;;;;;;;;4986601;28;20217;-83
2022/01/09 00:11:34;;;;;;;4.33;2.80;;;;;;;;;;4986532;28;20320;-83
2022/01/09 00:14:02;;;;;;;4.20;2.67;;;;;;;;;;4986488;28;20216;-83
2022/01/09 00:16:29;;;;;;;4.50;2.90;;;;;;;;;;4986900;28;20492;-82
2022/01/09 00:18:57;;;;;;;5.23;3.30;;;;;;;;;;4984143;28;20472;-82
2022/01/09 00:21:24;;;;;;;5.00;3.00;;;;;;;;;;4986576;28;20476;-82
2022/01/09 00:23:51;;;;;;;8.53;3.17;;;;;;;;;;4984052;28;20499;-84
2022/01/09 00:26:18;;;;;;;6.07;3.83;;;;;;;;;;4987020;28;20280;-83
2022/01/09 00:28:45;;;;;;;7.33;4.30;;;;;;;;;;4987467;28;20204;-83
2022/01/09 00:31:14;;;;;;;7.83;4.60;;;;;;;;;;4987750;28;20216;-82
2022/01/09 00:33:41;;;;;;;8.20;4.30;;;;;;;;;;4986996;28;20296;-83
2022/01/09 00:36:09;;;;;;;5.73;3.70;;;;;;;;;;4984285;28;20557;-84
2022/01/09 00:38:36;;;;;;;5.47;3.50;;;;;;;;;;4987656;28;20246;-82
2022/01/09 00:41:03;;;;;;;5.53;3.43;;;;;;;;;;4985477;28;20480;-83
2022/01/09 00:43:31;;;;;;;5.43;3.50;;;;;;;;;;4988407;28;20220;-82
2022/01/09 00:45:58;;;;;;;5.00;3.60;;;;;;;;;;4987905;28;20227;-82
2022/01/09 00:48:26;;;;;;;6.20;3.83;;;;;;;;;;4988318;28;20210;-81
2022/01/09 00:50:54;;;;;;;5.50;3.63;;;;;;;;;;4986733;28;20216;-82
2022/01/09 00:53:21;;;;;;;4.83;2.87;;;;;;;;;;4986163;28;20659;-82
2022/01/09 00:55:48;;;;;;;6.03;3.23;;;;;;;;;;4988996;28;20308;-82
2022/01/09 00:58:15;;;;;;;3.97;2.87;;;;;;;;;;4990404;28;20240;-83
2022/01/09 01:00:42;;;;;;;4.90;3.20;;;;;;;;;;4987381;28;20292;-82
2022/01/09 01:03:09;;;;;;;4.73;3.07;;;;;;;;;;4987976;28;20197;-82
2022/01/09 01:05:38;;;;;;;8.40;4.27;;;;;;;;;;4972543;28;20229;-81
2022/01/09 01:08:05;;;;;;;4.23;3.07;;;;;;;;;;4984890;28;20472;-83
2022/01/09 01:10:33;;;;;;;5.20;2.70;;;;;;;;;;4992063;28;20935;-82
2022/01/09 01:13:00;;;;;;;8.03;2.90;;;;;;;;;;4982141;28;20211;-82
2022/01/09 01:15:27;;;;;;;5.67;3.20;;;;;;;;;;4983161;28;20479;-82
2022/01/09 01:17:54;;;;;;;4.20;2.73;;;;;;;;;;4980616;28;20279;-83
2022/01/09 01:20:23;;;;;;;5.27;3.10;;;;;;;;;;4983981;28;20196;-83
2022/01/09 01:22:52;;;;;;;5.47;3.33;;;;;;;;;;4982139;28;20491;-82
2022/01/09 01:25:20;;;;;;;6.50;3.67;;;;;;;;;;4981322;28;21859;-83
2022/01/09 01:27:47;;;;;;;4.47;3.00;;;;;;;;;;4984564;28;20283;-83
2022/01/09 01:30:15;;;;;;;4.17;2.70;;;;;;;;;;4981974;28;20463;-82
2022/01/09 01:32:42;;;;;;;4.73;3.03;;;;;;;;;;4981076;28;20461;-82
2022/01/09 01:35:10;;;;;;;5.30;3.50;;;;;;;;;;4983370;28;20532;-82
2022/01/09 01:37:41;;;;;;;4.27;2.90;;;;;;;;;;4984057;28;20233;-82
2022/01/09 01:40:11;;;;;;;4.87;2.93;;;;;;;;;;4988075;28;20205;-83
2022/01/09 01:42:38;;;;;;;3.73;2.70;;;;;;;;;;4984015;28;20206;-83
2022/01/09 01:45:06;;;;;;;4.30;2.93;;;;;;;;;;4981817;28;20214;-83
2022/01/09 01:47:33;;;;;;;3.77;2.57;;;;;;;;;;4986255;28;20297;-84
2022/01/09 01:50:00;;;;;;;5.07;3.10;;;;;;;;;;4986762;28;20213;-83
2022/01/09 01:52:31;;;;;;;3.83;2.60;;;;;;;;;;4986971;28;20240;-84
2022/01/09 01:54:59;;;;;;;4.47;3.00;;;;;;;;;;4980973;28;20236;-83
2022/01/09 01:57:27;;;;;;;3.87;2.70;;;;;;;;;;4985420;28;20312;-82
2022/01/09 01:59:56;;;;;;;4.87;2.80;;;;;;;;;;4986573;28;20470;-83
2022/01/09 02:02:25;;;;;;;3.93;2.57;;;;;;;;;;4985211;28;20307;-83
2022/01/09 02:04:53;;;;;;;3.90;2.80;;;;;;;;;;4986574;28;20198;-82
2022/01/09 02:07:20;;;;;;;3.20;2.33;;;;;;;;;;4989536;28;20209;-82
2022/01/09 02:09:47;;;;;;;6.70;3.20;;;;;;;;;;4986302;28;20273;-83
2022/01/09 02:12:14;;;;;;;4.03;2.80;;;;;;;;;;4990371;28;20763;-82
2022/01/09 02:14:47;;;;;;;6.77;3.30;;;;;;;;;;4985037;28;20206;-84
2022/01/09 02:17:18;;;;;;;5.13;3.33;;;;;;;;;;4996439;28;20220;-82
2022/01/09 02:19:53;;;;;;;4.73;3.00;;;;;;;;;;5008051;28;20465;-81
2022/01/09 02:22:20;;;;;;;4.27;2.63;;;;;;;;;;4998933;28;20269;-83
2022/01/09 02:24:47;;;;;;;5.70;2.83;;;;;;;;;;4994067;28;20576;-84
2022/01/09 02:27:15;;;;;;;4.63;3.13;;;;;;;;;;4988849;28;20201;-83
2022/01/09 02:29:42;;;;;;;4.73;3.03;;;;;;;;;;4982911;28;20230;-83
2022/01/09 02:32:10;;;;;;;4.90;3.20;;;;;;;;;;4988121;28;20332;-83
2022/01/09 02:34:37;;;;;;;4.60;2.83;;;;;;;;;;4990867;28;20268;-84
2022/01/09 02:37:06;;;;;;;5.20;3.00;;;;;;;;;;4991810;28;20228;-83
2022/01/09 02:39:33;;;;;;;4.43;3.20;;;;;;;;;;4987913;28;20204;-84
2022/01/09 02:42:00;;;;;;;4.93;3.17;;;;;;;;;;4988126;28;20211;-83
2022/01/09 02:44:27;;;;;;;4.67;3.20;;;;;;;;;;4984402;28;20733;-83
2022/01/09 02:47:01;;;;;;;6.10;3.20;;;;;;;;;;4986584;28;20492;-82
2022/01/09 02:49:30;;;;;;;5.00;3.07;;;;;;;;;;4988330;28;20200;-83
2022/01/09 02:51:58;;;;;;;5.60;2.90;;;;;;;;;;4986758;28;20675;-83
2022/01/09 02:57:11;;;;;;;4.80;2.97;;;;;;;;;;4992264;28;20479;-84
2022/01/09 02:59:38;;;;;;;5.80;3.20;;;;;;;;;;4991669;28;20519;-84
2022/01/09 03:02:05;;;;;;;4.53;2.90;;;;;;;;;;4988576;28;20236;-84
2022/01/09 03:04:33;;;;;;;13.60;4.17;;;;;;;;;;4992677;28;20224;-84
2022/01/09 03:07:00;;;;;;;4.57;2.90;;;;;;;;;;4993342;28;20251;-84
2022/01/09 03:09:28;;;;;;;3.50;2.60;;;;;;;;;;4993051;28;20303;-84
2022/01/09 03:11:56;;;;;;;4.47;2.90;;;;;;;;;;4991040;28;20268;-84
2022/01/09 03:14:23;;;;;;;4.23;2.77;;;;;;;;;;4995752;28;20308;-83
2022/01/09 03:16:50;;;;;;;5.00;3.03;;;;;;;;;;4989595;28;20552;-85
2022/01/09 03:19:17;;;;;;;6.77;2.80;;;;;;;;;;4992826;28;20228;-82
2022/01/09 03:21:44;;;;;;;4.93;3.20;;;;;;;;;;4993737;28;21026;-84
2022/01/09 03:24:11;;;;;;;5.40;3.30;;;;;;;;;;4992800;28;20209;-83
2022/01/09 03:26:40;;;;;;;10.57;3.60;;;;;;;;;;4992899;28;20235;-85
2022/01/09 03:29:07;;;;;;;5.20;2.97;;;;;;;;;;4994527;28;20753;-83
2022/01/09 03:31:34;;;;;;;6.37;3.20;;;;;;;;;;4990203;28;20240;-85
2022/01/09 03:34:01;;;;;;;6.47;3.60;;;;;;;;;;4990268;28;20300;-83
2022/01/09 03:36:29;;;;;;;6.13;3.63;;;;;;;;;;4986777;28;20229;-83
2022/01/09 03:50:41;;;;;;;5.23;3.00;;;;;;;;;;4985211;28;20447;-83
2022/01/09 03:53:12;;;;;;;3.93;2.80;;;;;;;;;;4994032;28;20201;-82
2022/01/09 03:55:39;;;;;;;5.13;3.30;;;;;;;;;;4989691;28;20235;-81
2022/01/09 03:58:06;;;;;;;4.90;3.10;;;;;;;;;;5000348;28;20232;-80
2022/01/09 04:00:33;;;;;;;6.27;3.73;;;;;;;;;;5007324;28;20479;-80
2022/01/09 04:03:01;;;;;;;5.03;3.30;;;;;;;;;;5005499;28;20225;-81
2022/01/09 04:05:28;;;;;;;8.63;3.70;;;;;;;;;;4984134;28;20232;-83
2022/01/09 04:07:56;;;;;;;6.77;3.70;;;;;;;;;;4984485;28;20208;-82
2022/01/09 04:10:28;;;;;;;5.87;3.80;;;;;;;;;;4982115;28;20201;-81
2022/01/09 04:12:59;;;;;;;9.13;4.00;;;;;;;;;;4982108;28;20202;-81
2022/01/09 04:15:27;;;;;;;8.33;4.20;;;;;;;;;;4984258;28;20347;-82
2022/01/09 04:17:55;;;;;;;8.23;4.07;;;;;;;;;;4988768;28;20249;-81
2022/01/09 04:20:23;;;;;;;6.63;4.30;;;;;;;;;;4985663;28;20272;-81
2022/01/09 04:22:51;;;;;;;7.03;4.30;;;;;;;;;;4986808;28;20210;-81
2022/01/09 04:25:19;;;;;;;8.87;4.40;;;;;;;;;;4985738;28;20216;-81
2022/01/09 04:27:47;;;;;;;8.07;4.53;;;;;;;;;;4988114;28;20244;-82
2022/01/09 04:30:14;;;;;;;6.03;3.10;;;;;;;;;;4985436;28;20235;-81
2022/01/09 04:32:42;;;;;;;1.53;1.07;;;;;;;;;;4987820;28;20712;-81
2022/01/09 04:35:09;;;;;;;0.30;0.30;;;;;;;;;;4987961;28;20335;-81
2022/01/09 04:37:37;;;;;;;0.20;0.20;;;;;;;;;;4982901;28;20488;-82
2022/01/09 04:40:05;;;;;;;0.20;0.20;;;;;;;;;;4980029;28;20868;-82
2022/01/09 04:42:39;;;;;;;0.10;0.10;;;;;;;;;;4983074;28;20304;-81
2022/01/09 04:45:08;;;;;;;0.10;0.10;;;;;;;;;;4986090;28;20385;-81
2022/01/09 04:47:35;;;;;;;0.10;0.10;;;;;;;;;;4990078;28;20201;-81
2022/01/09 04:50:02;;;;;;;0.17;0.17;;;;;;;;;;4979793;28;20217;-82
2022/01/09 04:52:33;;;;;;;0.10;0.10;;;;;;;;;;4979936;28;20209;-81
2022/01/09 04:55:00;;;;;;;0.10;0.10;;;;;;;;;;4980028;28;20738;-82
2022/01/09 04:57:27;;;;;;;0.13;0.13;;;;;;;;;;4980327;28;20236;-82
2022/01/09 04:59:56;;;;;;;0.10;0.10;;;;;;;;;;4980764;28;20203;-81
2022/01/09 05:02:23;;;;;;;0.10;0.10;;;;;;;;;;4979577;28;20208;-82
2022/01/09 05:04:50;;;;;;;0.10;0.10;;;;;;;;;;4977112;28;20889;-82
2022/01/09 05:07:17;;;;;;;0.10;0.10;;;;;;;;;;4984233;28;20263;-83
2022/01/09 05:09:45;;;;;;;0.10;0.10;;;;;;;;;;4980278;28;20204;-81
2022/01/09 05:12:12;;;;;;;0.30;0.20;;;;;;;;;;4984532;28;20227;-82
2022/01/09 05:14:39;;;;;;;0.73;0.10;;;;;;;;;;4986553;28;20201;-83
2022/01/09 05:17:07;;;;;;;0.10;0.10;;;;;;;;;;4986250;28;20229;-82
2022/01/09 05:19:36;;;;;;;3.10;0.20;;;;;;;;;;4989758;28;20221;-82
2022/01/09 05:22:03;;;;;;;0.70;0.20;;;;;;;;;;4990933;28;20220;-80
2022/01/09 05:24:30;;;;;;;0.10;0.10;;;;;;;;;;4989815;28;20215;-82
2022/01/09 05:26:57;;;;;;;0.10;0.10;;;;;;;;;;4991958;28;20229;-82
2022/01/09 05:29:24;;;;;;;0.10;0.10;;;;;;;;;;4989949;28;20212;-82
2022/01/09 05:31:52;;;;;;;0.30;0.20;;;;;;;;;;4982004;28;21013;-82
2022/01/09 05:34:20;;;;;;;1.80;0.20;;;;;;;;;;4981071;28;20211;-82
2022/01/09 05:36:47;;;;;;;1.13;0.30;;;;;;;;;;4985034;28;20232;-81
2022/01/09 05:39:15;;;;;;;0.27;0.20;;;;;;;;;;4983128;28;20212;-81
2022/01/09 05:41:43;;;;;;;0.53;0.27;;;;;;;;;;4987668;28;20268;-79
2022/01/09 05:44:10;;;;;;;1.70;0.40;;;;;;;;;;4986210;28;20236;-79
2022/01/09 05:46:38;;;;;;;1.60;0.37;;;;;;;;;;4993608;28;20248;-81
2022/01/09 05:49:05;;;;;;;2.33;0.50;;;;;;;;;;4989820;28;20300;-81
2022/01/09 05:51:33;;;;;;;1.00;0.40;;;;;;;;;;4989196;28;20213;-81
2022/01/09 05:54:01;;;;;;;1.50;0.40;;;;;;;;;;4985310;28;20303;-82
2022/01/09 05:56:28;;;;;;;0.50;0.40;;;;;;;;;;4981267;28;20244;-82
2022/01/09 05:58:55;;;;;;;4.27;0.40;;;;;;;;;;4977331;28;20316;-82
2022/01/09 06:01:22;;;;;;;1.70;0.40;;;;;;;;;;4979163;28;20328;-82
2022/01/09 06:03:49;;;;;;;1.23;0.40;;;;;;;;;;4978946;28;20209;-82
2022/01/09 06:06:16;;;;;;;2.00;0.43;;;;;;;;;;4977604;28;20233;-82
2022/01/09 06:08:45;;;;;;;2.70;0.50;;;;;;;;;;4980215;28;20209;-83
2022/01/09 06:11:12;;;;;;;1.40;0.37;;;;;;;;;;4985686;28;20296;-82
2022/01/09 06:13:39;;;;;;;3.40;0.47;;;;;;;;;;4982009;28;20932;-82
2022/01/09 06:16:07;;;;;;;0.20;0.20;;;;;;;;;;4985634;28;20217;-83
2022/01/09 06:18:34;;;;;;;0.53;0.47;;;;;;;;;;4986249;28;20217;-83
2022/01/09 06:21:01;;;;;;;1.13;0.30;;;;;;;;;;4983540;28;20213;-81
2022/01/09 06:23:28;;;;;;;0.73;0.20;;;;;;;;;;4991077;28;20655;-82
2022/01/09 06:25:57;;;;;;;0.40;0.30;;;;;;;;;;4985074;28;20308;-81
2022/01/09 06:28:24;;;;;;;1.17;0.37;;;;;;;;;;4987611;28;20233;-82
2022/01/09 06:30:51;;;;;;;0.73;0.23;;;;;;;;;;4982379;28;20280;-83
2022/01/09 06:33:18;;;;;;;1.00;0.37;;;;;;;;;;4991332;28;20295;-84
2022/01/09 06:35:45;;;;;;;0.70;0.40;;;;;;;;;;4985162;28;20400;-82
2022/01/09 06:38:13;;;;;;;2.07;0.23;;;;;;;;;;4992336;28;20224;-81
2022/01/09 06:40:40;;;;;;;0.70;0.40;;;;;;;;;;4988903;28;20207;-82
2022/01/09 06:43:08;;;;;;;0.83;0.40;;;;;;;;;;4988782;28;20214;-82
2022/01/09 06:45:35;;;;;;;0.60;0.40;;;;;;;;;;4991289;28;20217;-83
2022/01/09 06:48:03;;;;;;;1.23;0.50;;;;;;;;;;4986010;28;20304;-82
2022/01/09 06:50:30;;;;;;;2.87;1.00;;;;;;;;;;4989155;28;20212;-82
2022/01/09 06:52:57;;;;;;;2.33;1.33;;;;;;;;;;4990814;28;20273;-82
2022/01/09 06:55:24;;;;;;;5.57;1.60;;;;;;;;;;4987604;28;20225;-82
2022/01/09 06:57:53;;;;;;;9.03;2.10;;;;;;;;;;4992780;28;20324;-82
2022/01/09 07:00:22;;;;;;;6.07;2.30;;;;;;;;;;4987902;28;20210;-83
2022/01/09 07:02:50;;;;;;;15.60;3.37;;;;;;;;;;4987612;28;20304;-83
2022/01/09 07:05:17;;;;;;;15.00;3.07;;;;;;;;;;4992787;28;20255;-81
2022/01/09 07:07:44;;;;;;;7.40;3.00;;;;;;;;;;4999383;28;20327;-82
2022/01/09 07:10:12;;;;;;;16.17;3.10;;;;;;;;;;4995170;28;20225;-82
2022/01/09 07:12:39;;;;;;;12.27;2.93;;;;;;;;;;4990729;28;20233;-82
2022/01/09 07:15:07;;;;;;;9.70;3.10;;;;;;;;;;4992802;28;20259;-83
2022/01/09 07:17:36;;;;;;;9.23;3.30;;;;;;;;;;4991880;28;20235;-82
2022/01/09 07:20:03;;;;;;;7.07;2.90;;;;;;;;;;4994932;28;20219;-83
2022/01/09 07:22:31;;;;;;;14.77;3.33;;;;;;;;;;4991735;28;20918;-81
2022/01/09 07:24:58;;;;;;;15.57;3.50;;;;;;;;;;4993396;28;20235;-83
2022/01/09 07:27:25;;;;;;;8.27;2.53;;;;;;;;;;4991186;28;20225;-83
2022/01/09 07:29:52;;;;;;;17.17;4.33;;;;;;;;;;4992209;28;20325;-83
2022/01/09 07:32:19;;;;;;;16.33;4.07;;;;;;;;;;4987094;28;20220;-81
2022/01/09 07:34:48;;;;;;;17.57;4.03;;;;;;;;;;4984576;28;20223;-82
2022/01/09 07:37:15;;;;;;;12.33;3.70;;;;;;;;;;4988425;28;20670;-82
2022/01/09 07:39:42;;;;;;;24.17;4.40;;;;;;;;;;4986573;28;20229;-82
2022/01/09 07:42:09;;;;;;;22.77;4.40;;;;;;;;;;4987951;28;20223;-81
2022/01/09 07:44:37;;;;;;;14.83;3.93;;;;;;;;;;4992151;28;20227;-81
2022/01/09 07:47:04;;;;;;;13.83;3.87;;;;;;;;;;4995368;28;20253;-81
2022/01/09 07:49:31;;;;;;;18.80;3.93;;;;;;;;;;4993881;28;20327;-81
2022/01/09 07:52:00;;;;;;;13.37;3.90;;;;;;;;;;4983617;28;20213;-83
2022/01/09 07:54:27;;;;;;;20.20;3.43;;;;;;;;;;4984754;28;20582;-83
2022/01/09 07:56:54;;;;;;;13.47;4.00;;;;;;;;;;4990409;28;20296;-81
2022/01/09 07:59:21;;;;;;;12.43;3.40;;;;;;;;;;4989384;28;20754;-83
2022/01/09 08:01:48;;;;;;;12.07;3.63;;;;;;;;;;4982607;28;20654;-82
2022/01/09 08:04:15;;;;;;;14.90;3.80;;;;;;;;;;4987252;28;20197;-82
2022/01/09 08:06:42;;;;;;;18.33;4.07;;;;;;;;;;4985299;28;20228;-81
2022/01/09 08:09:11;;;;;;;12.17;3.63;;;;;;;;;;4989024;28;20577;-81
2022/01/09 08:11:38;;;;;;;18.57;3.83;;;;;;;;;;4982771;28;20214;-82
2022/01/09 08:14:05;;;;;;;16.13;3.50;;;;;;;;;;4985890;28;20654;-81
2022/01/09 08:16:32;;;;;;;17.10;3.63;;;;;;;;;;4988822;28;20216;-82
2022/01/09 08:19:00;;;;;;;14.77;3.90;;;;;;;;;;4988058;28;20235;-83
2022/01/09 08:21:27;;;;;;;14.53;3.50;;;;;;;;;;4988525;28;20291;-83
2022/01/09 08:23:54;;;;;;;15.70;3.80;;;;;;;;;;4983239;28;20293;-81
2022/01/09 08:26:22;;;;;;;15.43;3.87;;;;;;;;;;4989488;28;20249;-82
2022/01/09 08:28:50;;;;;;;12.33;3.67;;;;;;;;;;4988494;28;20692;-83
2022/01/09 08:31:17;;;;;;;14.97;3.80;;;;;;;;;;4986183;28;20206;-82
2022/01/09 08:33:44;;;;;;;12.03;2.87;;;;;;;;;;4986685;28;20668;-83
2022/01/09 08:36:11;;;;;;;13.53;3.53;;;;;;;;;;4995229;28;20243;-83
2022/01/09 08:38:39;;;;;;;15.07;4.03;;;;;;;;;;4992395;28;20317;-81
2022/01/09 08:41:06;;;;;;;22.07;4.40;;;;;;;;;;4992321;28;20585;-83
2022/01/09 08:43:37;;;;;;;17.83;4.50;;;;;;;;;;4989178;28;20279;-81
2022/01/09 08:46:04;;;;;;;15.17;3.97;;;;;;;;;;4988715;28;20312;-82
2022/01/09 08:48:31;;;;;;;13.83;3.47;;;;;;;;;;4989759;28;20223;-81
2022/01/09 08:50:58;;;;;;;11.97;3.70;;;;;;;;;;4991719;28;20205;-82
2022/01/09 08:53:25;;;;;;;14.90;3.33;;;;;;;;;;4991984;28;20211;-82
2022/01/09 08:55:53;;;;;;;9.40;3.40;;;;;;;;;;4985278;28;20795;-82
2022/01/09 08:58:20;;;;;;;12.30;3.60;;;;;;;;;;4993484;28;20224;-81
2022/01/09 09:00:50;;;;;;;15.53;3.30;;;;;;;;;;4987015;28;20213;-81
2022/01/09 09:03:17;;;;;;;6.70;2.60;;;;;;;;;;4992016;28;20226;-81
2022/01/09 09:05:44;;;;;;;13.27;3.33;;;;;;;;;;4988139;28;20233;-81
2022/01/09 09:08:11;;;;;;;15.87;3.70;;;;;;;;;;4991958;28;20202;-82
2022/01/09 09:10:39;;;;;;;13.37;3.67;;;;;;;;;;4989761;28;20215;-83
2022/01/09 09:13:06;;;;;;;12.80;3.47;;;;;;;;;;4991702;28;20594;-82
2022/01/09 09:15:33;;;;;;;12.07;4.03;;;;;;;;;;4987527;28;20233;-81
2022/01/09 09:18:02;;;;;;;12.87;3.57;;;;;;;;;;4988402;28;20674;-83
2022/01/09 09:20:29;;;;;;;13.27;3.80;;;;;;;;;;4987844;28;20216;-82
2022/01/09 09:22:56;;;;;;;13.83;3.73;;;;;;;;;;4991972;28;20210;-82
2022/01/09 09:25:23;;;;;;;10.47;3.70;;;;;;;;;;4985540;28;20235;-82
2022/01/09 09:27:50;;;;;;;21.30;4.00;;;;;;;;;;4987207;28;20219;-82
2022/01/09 09:30:18;;;;;;;15.83;4.30;;;;;;;;;;4986771;28;20209;-82
2022/01/09 09:32:45;;;;;;;22.47;3.90;;;;;;;;;;4982224;28;20202;-82
2022/01/09 09:35:13;;;;;;;15.20;4.07;;;;;;;;;;4989565;28;20311;-82
2022/01/09 09:37:41;;;;;;;19.10;4.13;;;;;;;;;;4988777;28;20289;-82
2022/01/09 09:40:09;;;;;;;17.23;4.47;;;;;;;;;;4990649;28;20312;-82
2022/01/09 09:42:36;;;;;;;17.17;4.23;;;;;;;;;;4990334;28;20228;-80
2022/01/09 09:45:05;;;;;;;11.47;3.67;;;;;;;;;;4987901;28;20233;-80
2022/01/09 09:47:34;;;;;;;11.17;3.80;;;;;;;;;;4989626;28;20205;-81
2022/01/09 09:50:01;;;;;;;24.87;4.03;;;;;;;;;;4988328;28;20210;-80
2022/01/09 09:52:29;;;;;;;16.07;3.73;;;;;;;;;;4989647;28;20202;-80
2022/01/09 09:54:57;;;;;;;14.93;3.53;;;;;;;;;;4988333;28;20233;-80
2022/01/09 09:57:24;;;;;;;19.20;4.07;;;;;;;;;;4988893;28;20650;-81
2022/01/09 09:59:59;;;;;;;14.00;3.73;;;;;;;;;;4979356;28;20222;-80
2022/01/09 10:02:26;;;;;;;14.83;3.57;;;;;;;;;;4984949;28;20666;-81
2022/01/09 10:05:01;;;;;;;9.17;3.50;;;;;;;;;;4987162;28;20232;-80
2022/01/09 10:07:30;;;;;;;13.17;3.63;;;;;;;;;;4986693;28;21617;-80
2022/01/09 10:09:58;;;;;;;12.33;3.93;;;;;;;;;;4986063;28;20229;-80
2022/01/09 10:12:26;;;;;;;9.17;3.07;;;;;;;;;;4981301;28;20268;-80
2022/01/09 10:14:54;;;;;;;9.60;3.00;;;;;;;;;;4985081;28;20591;-80
2022/01/09 10:17:21;;;;;;;10.40;3.53;;;;;;;;;;4985579;28;20205;-80
2022/01/09 10:19:49;;;;;;;12.00;3.80;;;;;;;;;;4984446;28;20227;-81
2022/01/09 10:22:27;;;;;;;14.53;3.50;;;;;;;;;;4985941;28;20208;-80
2022/01/09 10:24:56;;;;;;;15.83;3.97;;;;;;;;;;4983529;28;20216;-81
2022/01/09 10:27:31;;;;;;;16.93;3.90;;;;;;;;;;4983809;28;20209;-81
2022/01/09 10:29:59;;;;;;;20.30;5.17;;;;;;;;;;4984156;28;20283;-80
2022/01/09 10:32:26;;;;;;;15.20;5.20;;;;;;;;;;4986017;28;20233;-81
2022/01/09 10:35:10;;;;;;;10.93;4.10;;;;;;;;;;4985592;28;20555;-82
2022/01/09 10:37:38;;;;;;;15.00;3.40;;;;;;;;;;4988054;28;20212;-81
2022/01/09 10:40:09;;;;;;;7.73;3.57;;;;;;;;;;4983297;28;20742;-80
2022/01/09 10:42:36;;;;;;;9.47;3.33;;;;;;;;;;4985135;28;20212;-81
2022/01/09 10:45:20;;;;;;;15.03;3.93;;;;;;;;;;4986151;28;20809;-82
2022/01/09 10:47:48;;;;;;;18.90;8.03;;;;;;;;;;4984914;28;20204;-82
2022/01/09 10:50:24;;;;;;;7.43;3.03;;;;;;;;;;4984221;28;20568;-81
2022/01/09 10:52:51;;;;;;;12.73;3.30;;;;;;;;;;4988333;28;20206;-82
2022/01/09 10:55:20;;;;;;;12.57;3.60;;;;;;;;;;4985244;28;20650;-82
2022/01/09 10:57:47;;;;;;;6.87;2.90;;;;;;;;;;4982459;28;20678;-81
2022/01/09 11:00:16;;;;;;;8.00;3.33;;;;;;;;;;4985174;28;20740;-81
2022/01/09 11:02:45;;;;;;;21.43;10.33;;;;;;;;;;4982473;28;20201;-82
2022/01/09 11:05:12;;;;;;;12.37;6.10;;;;;;;;;;4985125;28;20833;-81
2022/01/09 11:07:41;;;;;;;10.57;3.67;;;;;;;;;;4980678;28;20216;-82
2022/01/09 11:10:09;;;;;;;9.23;3.93;;;;;;;;;;4980003;28;20970;-82
2022/01/09 11:12:46;;;;;;;11.27;4.30;;;;;;;;;;4984268;28;20224;-82
2022/01/09 11:15:18;;;;;;;10.47;3.50;;;;;;;;;;4983224;28;20270;-83
2022/01/09 11:17:47;;;;;;;17.70;3.33;;;;;;;;;;4986488;28;20616;-82
2022/01/09 11:20:15;;;;;;;14.67;3.97;;;;;;;;;;4983446;28;20299;-83
2022/01/09 11:22:44;;;;;;;11.97;3.00;;;;;;;;;;4983918;28;20285;-82
2022/01/09 11:25:20;;;;;;;10.17;2.80;;;;;;;;;;4984356;28;20723;-82
2022/01/09 11:28:00;;;;;;;7.00;2.50;;;;;;;;;;4987964;28;20200;-82
2022/01/09 11:30:33;;;;;;;13.03;2.77;;;;;;;;;;4989869;28;20207;-83
2022/01/09 11:33:15;;;;;;;8.50;2.70;;;;;;;;;;4984765;28;20214;-83
2022/01/09 11:35:49;;;;;;;8.40;2.77;;;;;;;;;;4983255;28;20612;-83
2022/01/09 11:38:21;;;;;;;8.93;2.90;;;;;;;;;;4991312;28;20208;-82
2022/01/09 11:40:48;;;;;;;16.27;4.87;;;;;;;;;;4991044;28;20260;-82
2022/01/09 11:43:17;;;;;;;53.23;27.30;;;;;;;;;;4988243;28;20209;-83
2022/01/09 11:45:46;;;;;;;20.90;9.20;;;;;;;;;;4984906;28;20308;-82
2022/01/09 11:48:14;;;;;;;11.67;6.60;;;;;;;;;;4986429;28;20218;-82
2022/01/09 11:50:59;;;;;;;12.43;4.50;;;;;;;;;;4981706;28;20221;-83
2022/01/09 11:53:26;;;;;;;9.47;3.07;;;;;;;;;;4986877;28;20858;-83
2022/01/09 11:55:54;;;;;;;9.90;3.53;;;;;;;;;;4991344;28;20311;-83
2022/01/09 11:58:31;;;;;;;17.13;4.67;;;;;;;;;;4987148;28;20204;-83
2022/01/09 12:00:59;;;;;;;14.43;6.07;;;;;;;;;;4985654;28;20251;-83
2022/01/09 12:03:36;;;;;;;22.37;8.97;;;;;;;;;;4983181;28;20241;-83
2022/01/09 12:06:04;;;;;;;12.20;4.87;;;;;;;;;;4986835;28;20271;-83
2022/01/09 12:08:46;;;;;;;21.37;5.57;;;;;;;;;;4982328;28;20216;-82
2022/01/09 12:11:13;;;;;;;17.03;5.67;;;;;;;;;;4980116;28;20704;-82
2022/01/09 12:13:43;;;;;;;16.73;4.57;;;;;;;;;;4980329;28;20220;-82
2022/01/09 12:16:31;;;;;;;12.43;4.50;;;;;;;;;;4989039;28;20229;-82
2022/01/09 12:18:58;;;;;;;20.30;6.27;;;;;;;;;;4985055;28;20295;-82
2022/01/09 12:21:49;;;;;;;13.43;4.93;;;;;;;;;;4984703;28;20227;-83
2022/01/09 12:24:46;;;;;;;11.23;5.03;;;;;;;;;;4983394;28;20221;-83
2022/01/09 12:27:31;;;;;;;13.23;3.83;;;;;;;;;;4932570;29;20342;-84
2022/01/09 12:30:00;;;;;;;21.13;7.93;;;;;;;;;;4978068;28;20204;-83
2022/01/09 12:32:39;;;;;;;16.37;5.37;;;;;;;;;;4990974;28;20279;-83
2022/01/09 12:35:13;;;;;;;37.83;10.73;;;;;;;;;;4992447;28;20287;-85
2022/01/09 12:37:45;;;;;;;38.50;10.57;;;;;;;;;;4986681;28;20644;-84
2022/01/09 12:40:12;;;;;;;34.23;13.07;;;;;;;;;;4989255;28;20231;-84
2022/01/09 12:42:46;;;;;;;11.63;3.43;;;;;;;;;;4993048;28;20197;-84
2022/01/09 12:45:15;;;;;;;15.67;3.83;;;;;;;;;;4997211;28;20225;-83
2022/01/09 12:47:42;;;;;;;10.87;4.77;;;;;;;;;;4991583;28;20208;-81
2022/01/09 12:50:10;;;;;;;12.67;4.60;;;;;;;;;;4987492;28;20225;-82
2022/01/09 12:52:40;;;;;;;35.50;16.27;;;;;;;;;;4992046;28;20288;-83
2022/01/09 12:55:08;;;;;;;12.03;4.27;;;;;;;;;;4989944;28;20221;-83
2022/01/09 12:57:50;;;;;;;17.67;7.87;;;;;;;;;;4988626;28;20734;-82
2022/01/09 13:00:25;;;;;;;11.80;5.60;;;;;;;;;;4992833;28;20316;-82
2022/01/09 13:02:53;;;;;;;7.77;4.00;;;;;;;;;;4984869;28;20594;-82
2022/01/09 13:05:22;;;;;;;13.83;5.87;;;;;;;;;;4983446;28;20256;-82
2022/01/09 13:07:55;;;;;;;13.63;4.93;;;;;;;;;;4994924;28;20544;-82
2022/01/09 13:10:28;;;;;;;17.63;6.10;;;;;;;;;;4986822;28;20203;-82
2022/01/09 13:13:02;;;;;;;13.00;5.13;;;;;;;;;;5001644;28;20260;-81
2022/01/09 13:15:34;;;;;;;10.13;3.73;;;;;;;;;;5005237;28;20224;-81
2022/01/09 13:18:01;;;;;;;7.37;3.80;;;;;;;;;;4986471;28;20315;-82
2022/01/09 13:20:28;;;;;;;12.87;5.23;;;;;;;;;;4990241;28;20323;-83
2022/01/09 13:23:05;;;;;;;8.73;3.00;;;;;;;;;;4986208;28;20210;-81
2022/01/09 13:25:42;;;;;;;12.50;3.07;;;;;;;;;;4984188;28;20221;-82
2022/01/09 13:28:18;;;;;;;13.30;4.53;;;;;;;;;;4987325;28;20200;-83
2022/01/09 13:30:46;;;;;;;9.63;4.47;;;;;;;;;;4982087;28;20209;-83
2022/01/09 13:33:13;;;;;;;20.63;6.40;;;;;;;;;;4987067;28;20281;-83
2022/01/09 13:35:41;;;;;;;21.37;7.47;;;;;;;;;;4987051;28;20774;-82
2022/01/09 13:38:09;;;;;;;25.80;7.60;;;;;;;;;;4990671;28;20295;-82
2022/01/09 13:40:36;;;;;;;46.73;18.33;;;;;;;;;;4989600;28;20216;-83
2022/01/09 13:43:03;;;;;;;17.27;5.73;;;;;;;;;;4988532;28;20291;-83
2022/01/09 13:45:34;;;;;;;86.57;24.07;;;;;;;;;;4986619;28;20236;-82
2022/01/09 13:48:04;;;;;;;38.30;12.83;;;;;;;;;;4982631;28;20244;-82
2022/01/09 13:50:34;;;;;;;33.07;10.73;;;;;;;;;;4982786;28;20209;-82
2022/01/09 13:53:07;;;;;;;31.40;7.80;;;;;;;;;;4983737;28;20268;-81
2022/01/09 13:55:35;;;;;;;102.93;25.63;;;;;;;;;;4985063;28;20312;-81
2022/01/09 13:58:06;;;;;;;55.30;14.80;;;;;;;;;;4985800;28;20743;-81
2022/01/09 14:00:34;;;;;;;19.10;6.77;;;;;;;;;;4985228;28;20535;-82
2022/01/09 14:03:04;;;;;;;21.10;6.57;;;;;;;;;;4985995;28;20201;-82
2022/01/09 14:05:36;;;;;;;46.07;13.20;;;;;;;;;;4983035;28;20613;-81
2022/01/09 14:08:03;;;;;;;17.97;5.73;;;;;;;;;;4987385;28;20205;-81
2022/01/09 14:10:34;;;;;;;13.50;3.77;;;;;;;;;;4985954;28;20204;-83
2022/01/09 14:13:01;;;;;;;14.43;4.17;;;;;;;;;;4984207;28;20220;-82
2022/01/09 14:15:28;;;;;;;8.83;2.93;;;;;;;;;;4988284;28;20232;-82
2022/01/09 14:17:56;;;;;;;9.60;3.40;;;;;;;;;;4983541;28;20201;-83
2022/01/09 14:20:25;;;;;;;11.37;3.00;;;;;;;;;;4982998;28;20228;-82
2022/01/09 14:22:53;;;;;;;11.23;3.87;;;;;;;;;;4985172;28;20201;-81
2022/01/09 14:25:25;;;;;;;9.93;3.40;;;;;;;;;;4986619;28;20236;-82
2022/01/09 14:27:53;;;;;;;18.07;3.90;;;;;;;;;;4983453;28;20205;-83
2022/01/09 14:30:25;;;;;;;12.20;3.80;;;;;;;;;;4985407;28;20265;-83
2022/01/09 14:33:05;;;;;;;11.77;3.83;;;;;;;;;;4980206;28;20223;-82
2022/01/09 14:35:35;;;;;;;10.77;3.83;;;;;;;;;;4984137;28;20315;-81
2022/01/09 14:38:04;;;;;;;15.87;4.03;;;;;;;;;;4984057;28;20690;-82
2022/01/09 14:40:32;;;;;;;10.70;3.63;;;;;;;;;;4983753;28;20232;-82
2022/01/09 14:43:00;;;;;;;8.43;3.50;;;;;;;;;;4979180;28;20780;-82
2022/01/09 14:45:27;;;;;;;16.37;5.37;;;;;;;;;;4983046;28;20268;-82
2022/01/09 14:47:55;;;;;;;23.37;8.40;;;;;;;;;;4984906;28;20206;-82
2022/01/09 14:50:22;;;;;;;14.03;6.17;;;;;;;;;;4982118;28;20690;-81
2022/01/09 14:52:51;;;;;;;12.37;5.23;;;;;;;;;;4985701;28;20248;-81
2022/01/09 14:55:18;;;;;;;12.40;4.43;;;;;;;;;;4985314;28;20307;-81
2022/01/09 14:57:45;;;;;;;43.87;17.20;;;;;;;;;;4986689;28;20200;-82
2022/01/09 15:00:13;;;;;;;27.07;11.13;;;;;;;;;;4985207;28;20229;-81